Time;durP1;ratioP1;P1;durP2;ratioP2;P2;SDS_P1;SDS_P2;PMS_P1;PMS_P2;Temp;Humidity;BMP_temperature;BMP_pressure;BME280_temperature;BME280_humidity;BME280_pressure;Samples;Min_cycle;Max_cycle;Signal;HPM_P1;HPM_P2
2024/01/09 00:02:17;;;;;;;3.70;3.40;;;14.10;58.20;14.70;102303.00;;;;5069185;28;20733;-47
2024/01/09 00:04:43;;;;;;;4.07;3.23;;;14.00;58.30;14.70;102302.00;;;;5058327;28;20284;-44
2024/01/09 00:07:08;;;;;;;3.63;3.33;;;14.00;58.30;14.70;102313.00;;;;5067990;28;20208;-44
2024/01/09 00:09:34;;;;;;;4.17;3.77;;;14.00;58.30;14.60;102306.00;;;;5068830;28;20173;-43
2024/01/09 00:12:00;;;;;;;4.23;3.80;;;14.00;58.30;14.60;102305.00;;;;5070259;28;20200;-45
2024/01/09 00:14:26;;;;;;;3.80;3.40;;;14.00;58.30;14.60;102305.00;;;;5069776;28;20682;-44
2024/01/09 00:16:52;;;;;;;5.17;3.60;;;13.90;58.30;14.60;102303.00;;;;5039715;28;20181;-44
2024/01/09 00:19:17;;;;;;;4.43;3.43;;;13.90;58.30;14.60;102308.00;;;;5065988;28;20185;-45
2024/01/09 00:21:46;;;;;;;3.80;3.50;;;13.90;58.40;14.50;102302.00;;;;5058539;28;20559;-44
2024/01/09 00:24:12;;;;;;;3.60;3.30;;;13.90;58.40;14.50;102304.00;;;;5068787;28;20213;-44
2024/01/09 00:26:44;;;;;;;4.23;3.40;;;13.90;58.50;14.50;102306.00;;;;5068868;28;20224;-44
2024/01/09 00:29:09;;;;;;;3.60;3.30;;;13.80;58.40;14.50;102302.00;;;;5068937;28;20182;-44
2024/01/09 00:31:35;;;;;;;3.60;3.23;;;13.90;58.40;14.50;102302.00;;;;5068678;28;20177;-44
2024/01/09 00:34:01;;;;;;;3.57;3.27;;;13.80;58.30;14.50;102311.00;;;;5069035;28;20654;-44
2024/01/09 00:36:27;;;;;;;3.30;3.00;;;13.80;58.30;14.50;102305.00;;;;5072672;28;21437;-46
2024/01/09 00:38:53;;;;;;;3.50;3.20;;;13.80;58.30;14.50;102307.00;;;;5062679;28;20185;-43
2024/01/09 00:41:18;;;;;;;3.60;3.13;;;13.80;58.30;14.50;102306.00;;;;5064164;28;20214;-44
2024/01/09 00:43:44;;;;;;;3.70;3.30;;;13.80;58.30;14.50;102299.00;;;;5072168;28;20201;-43
2024/01/09 00:46:10;;;;;;;3.40;3.10;;;13.80;58.20;14.50;102282.00;;;;5068642;28;20594;-52
2024/01/09 00:48:35;;;;;;;3.60;3.30;;;13.70;58.10;14.50;102309.00;;;;5041464;28;20173;-43
2024/01/09 00:51:01;;;;;;;3.50;3.10;;;13.70;58.20;14.40;102308.00;;;;5055949;28;20257;-45
2024/01/09 00:53:27;;;;;;;3.30;3.00;;;13.70;58.20;14.40;102306.00;;;;5073961;28;22245;-45
2024/01/09 00:55:52;;;;;;;3.60;3.30;;;13.70;58.20;14.40;102306.00;;;;5068680;28;20681;-44
2024/01/09 00:58:18;;;;;;;3.77;3.40;;;13.60;58.10;14.40;102299.00;;;;5076784;28;20200;-51
2024/01/09 01:00:44;;;;;;;3.40;3.10;;;13.60;58.10;14.40;102305.00;;;;5081879;28;20183;-45
2024/01/09 01:03:10;;;;;;;3.23;2.93;;;13.60;58.10;14.30;102304.00;;;;5076056;28;20608;-44
2024/01/09 01:05:36;;;;;;;3.50;3.20;;;13.60;58.20;14.30;102304.00;;;;5077119;28;20591;-44
2024/01/09 01:08:01;;;;;;;3.40;3.10;;;13.60;58.20;14.30;102300.00;;;;5068099;28;20209;-44
2024/01/09 01:10:27;;;;;;;3.20;2.90;;;13.60;58.20;14.30;102286.00;;;;5071317;28;20427;-45
2024/01/09 01:12:53;;;;;;;3.70;3.30;;;13.50;58.20;14.30;102300.00;;;;5071067;28;20177;-44
2024/01/09 01:15:18;;;;;;;3.47;3.17;;;13.50;58.20;14.30;102294.00;;;;5070814;28;20185;-43
2024/01/09 01:17:44;;;;;;;3.43;3.13;;;13.50;58.30;14.30;102295.00;;;;5066283;28;20181;-45
2024/01/09 01:20:10;;;;;;;3.50;3.20;;;13.50;58.30;14.20;102309.00;;;;5066013;28;20224;-44
2024/01/09 01:22:36;;;;;;;3.40;3.10;;;13.40;58.20;14.20;102305.00;;;;5071003;28;20557;-44
2024/01/09 01:25:02;;;;;;;3.40;3.13;;;13.50;58.30;14.20;102304.00;;;;5070924;28;20197;-45
2024/01/09 01:27:28;;;;;;;3.50;3.20;;;13.40;58.30;14.20;102307.00;;;;5070752;28;20220;-43
2024/01/09 01:29:53;;;;;;;3.70;3.30;;;13.40;58.30;14.20;102297.00;;;;5070317;28;20205;-45
2024/01/09 01:32:19;;;;;;;3.43;3.13;;;13.40;58.40;14.20;102295.00;;;;5048038;28;20186;-43
2024/01/09 01:34:45;;;;;;;3.40;3.10;;;13.40;58.50;14.20;102306.00;;;;5069519;28;20198;-44
2024/01/09 01:37:11;;;;;;;3.67;3.30;;;13.30;58.40;14.10;102300.00;;;;5070958;28;20201;-44
2024/01/09 01:39:37;;;;;;;3.60;3.23;;;13.30;58.50;14.10;102301.00;;;;5070892;28;20181;-43
2024/01/09 01:42:03;;;;;;;3.13;2.83;;;13.30;58.50;14.10;102300.00;;;;5046497;28;20177;-44
2024/01/09 01:44:29;;;;;;;3.40;3.10;;;13.30;58.70;14.10;102297.00;;;;5070693;28;20219;-44
2024/01/09 01:46:54;;;;;;;3.50;3.20;;;13.20;58.70;14.10;102309.00;;;;5070710;28;20256;-43
2024/01/09 01:49:20;;;;;;;3.33;3.03;;;13.20;58.80;14.10;102311.00;;;;5039474;28;20349;-44
2024/01/09 01:51:48;;;;;;;3.30;3.00;;;13.20;58.80;14.00;102309.00;;;;5042768;28;20662;-44
2024/01/09 01:54:14;;;;;;;3.50;3.20;;;13.20;58.80;14.00;102300.00;;;;5070312;28;20238;-44
2024/01/09 01:56:40;;;;;;;3.33;3.03;;;13.20;58.80;14.00;102301.00;;;;5073196;28;20181;-49
2024/01/09 01:59:06;;;;;;;3.20;2.90;;;13.10;58.70;14.00;102294.00;;;;5080750;28;20181;-44
2024/01/09 02:01:32;;;;;;;3.37;3.07;;;13.10;58.70;13.90;102252.00;;;;5040359;28;20675;-44
2024/01/09 02:03:58;;;;;;;3.30;3.00;;;13.10;58.70;13.90;102294.00;;;;5043924;28;20232;-43
2024/01/09 02:06:23;;;;;;;3.37;3.07;;;13.10;58.80;13.90;102304.00;;;;5057700;28;20198;-44
2024/01/09 02:08:49;;;;;;;3.30;3.00;;;13.10;58.90;13.90;102313.00;;;;5042196;28;20203;-44
2024/01/09 02:11:15;;;;;;;3.20;2.90;;;13.10;58.90;13.90;102309.00;;;;5069906;28;20564;-44
2024/01/09 02:13:40;;;;;;;3.37;3.07;;;13.00;58.90;13.90;102306.00;;;;5069794;28;20193;-44
2024/01/09 02:16:06;;;;;;;3.50;3.20;;;13.00;58.90;13.60;102314.00;;;;5069793;28;20177;-44
2024/01/09 02:18:32;;;;;;;3.30;3.00;;;13.00;59.00;13.80;102321.00;;;;5048009;28;20173;-43
2024/01/09 02:20:58;;;;;;;3.33;3.00;;;13.00;58.90;13.80;102304.00;;;;5064938;28;20229;-43
2024/01/09 02:23:23;;;;;;;3.20;2.93;;;12.90;59.00;13.80;102302.00;;;;5069761;28;20205;-43
2024/01/09 02:25:49;;;;;;;3.00;2.80;;;13.00;59.00;13.80;102285.00;;;;5047145;28;20530;-43
2024/01/09 02:28:56;;;;;;;3.20;2.90;;;12.90;58.90;13.80;102287.00;;;;5044827;28;20177;-43
2024/01/09 02:31:22;;;;;;;3.20;3.00;;;12.90;58.90;13.70;102293.00;;;;5046336;28;20184;-44
2024/01/09 02:33:49;;;;;;;3.57;2.80;;;12.90;58.90;13.70;102301.00;;;;5041699;28;20198;-44
2024/01/09 02:36:14;;;;;;;3.17;2.93;;;12.90;59.10;13.70;102302.00;;;;5074562;28;20243;-44
2024/01/09 02:38:40;;;;;;;3.37;3.07;;;12.80;58.90;13.70;102311.00;;;;5070164;28;20182;-45
2024/01/09 02:41:06;;;;;;;3.50;3.20;;;12.80;58.90;13.70;102306.00;;;;5045509;28;20182;-44
2024/01/09 02:43:31;;;;;;;3.37;3.07;;;12.80;59.10;13.60;102309.00;;;;5078872;28;20219;-50
2024/01/09 02:45:57;;;;;;;3.17;2.87;;;12.80;59.10;13.60;102316.00;;;;5068272;28;20209;-44
2024/01/09 02:48:23;;;;;;;3.17;2.90;;;12.80;59.20;13.60;102317.00;;;;5065785;28;20182;-44
2024/01/09 02:50:49;;;;;;;3.00;2.80;;;12.80;59.00;13.60;102309.00;;;;5068586;28;20174;-44
2024/01/09 02:53:14;;;;;;;3.10;2.83;;;12.70;58.90;13.60;102311.00;;;;5065489;28;20200;-43
2024/01/09 02:55:40;;;;;;;3.07;2.87;;;12.70;58.90;13.50;102306.00;;;;5070287;28;20199;-43
2024/01/09 02:58:06;;;;;;;3.23;2.93;;;12.70;58.90;13.50;102307.00;;;;5087537;28;20207;-44
2024/01/09 03:00:31;;;;;;;3.30;3.00;;;12.70;58.90;13.50;102304.00;;;;5069345;28;20181;-44
2024/01/09 03:02:57;;;;;;;3.00;2.70;;;12.70;58.90;13.50;102305.00;;;;5068885;28;20275;-44
2024/01/09 03:05:23;;;;;;;3.30;3.00;;;12.70;58.90;13.50;102295.00;;;;5068963;28;20180;-44
2024/01/09 03:07:49;;;;;;;3.07;2.87;;;12.70;59.20;13.40;102287.00;;;;5068887;28;20561;-44
2024/01/09 03:10:14;;;;;;;3.37;3.07;;;12.60;58.90;13.40;102300.00;;;;5046033;28;20178;-44
2024/01/09 03:12:40;;;;;;;3.20;3.00;;;12.60;59.00;13.40;102299.00;;;;5075043;28;20169;-45
2024/01/09 03:15:06;;;;;;;2.90;2.70;;;12.60;59.00;13.40;102299.00;;;;5054450;28;20250;-44
2024/01/09 03:17:32;;;;;;;3.17;2.90;;;12.60;59.00;13.40;102297.00;;;;5064406;28;20178;-43
2024/01/09 03:19:58;;;;;;;3.30;3.00;;;12.50;59.00;13.30;102291.00;;;;5063795;28;20239;-45
2024/01/09 03:22:23;;;;;;;3.30;3.00;;;12.50;59.00;13.30;102291.00;;;;5068686;28;20182;-45
2024/01/09 03:24:49;;;;;;;3.00;2.80;;;12.50;59.00;13.30;102304.00;;;;5069062;28;20694;-43
2024/01/09 03:27:15;;;;;;;3.00;2.80;;;12.50;59.00;13.30;102294.00;;;;5072400;28;20205;-44
2024/01/09 03:29:40;;;;;;;3.33;3.03;;;12.50;59.00;13.20;102295.00;;;;5068360;28;20174;-43
2024/01/09 03:32:06;;;;;;;3.20;2.90;;;12.50;59.00;13.20;102288.00;;;;5069253;28;20279;-44
2024/01/09 03:34:32;;;;;;;3.23;2.93;;;12.40;58.90;13.20;102281.00;;;;5046317;28;20225;-43
2024/01/09 03:36:58;;;;;;;3.30;3.00;;;12.40;59.10;13.20;102283.00;;;;5069006;28;20630;-44
2024/01/09 03:39:24;;;;;;;3.30;3.00;;;12.40;59.10;13.20;102287.00;;;;5070374;28;20550;-44
2024/01/09 03:41:51;;;;;;;3.20;2.90;;;12.40;59.10;13.20;102284.00;;;;5064417;28;20683;-43
2024/01/09 03:44:17;;;;;;;3.37;3.07;;;12.40;59.10;13.20;102283.00;;;;5068119;28;20760;-45
2024/01/09 03:46:43;;;;;;;3.23;2.97;;;12.30;59.10;13.20;102291.00;;;;5068297;28;20198;-44
2024/01/09 03:49:09;;;;;;;2.90;2.70;;;12.30;59.20;13.10;102281.00;;;;5068493;28;20235;-43
2024/01/09 03:51:35;;;;;;;2.90;2.70;;;12.30;59.20;13.10;102293.00;;;;5063054;28;20622;-43
2024/01/09 03:54:00;;;;;;;3.30;3.00;;;12.30;59.30;13.10;102294.00;;;;5068434;28;20194;-44
2024/01/09 03:56:26;;;;;;;3.17;2.87;;;12.30;59.30;13.10;102284.00;;;;5068192;28;20212;-44
2024/01/09 03:58:52;;;;;;;3.10;2.87;;;12.30;59.30;13.00;102287.00;;;;5067985;28;20253;-43
2024/01/09 04:01:18;;;;;;;3.10;2.80;;;12.30;59.40;13.00;102287.00;;;;5068166;28;20205;-44
2024/01/09 04:03:45;;;;;;;3.03;2.77;;;12.20;59.30;13.00;102290.00;;;;5069209;28;20227;-44
2024/01/09 04:06:11;;;;;;;3.17;2.90;;;12.20;59.30;13.00;102291.00;;;;5067038;28;20205;-44
2024/01/09 04:08:37;;;;;;;3.13;2.87;;;12.20;59.30;12.90;102291.00;;;;5068984;28;20169;-44
2024/01/09 04:11:04;;;;;;;3.20;2.90;;;12.20;59.20;12.90;102295.00;;;;5067166;28;20192;-43
2024/01/09 04:13:29;;;;;;;2.80;2.60;;;12.20;59.30;12.90;102291.00;;;;5068798;28;20604;-43
2024/01/09 04:15:55;;;;;;;2.97;2.70;;;12.10;59.30;12.80;102292.00;;;;5067112;28;20248;-44
2024/01/09 04:18:21;;;;;;;3.23;2.93;;;12.10;59.30;12.80;102290.00;;;;5063671;28;20212;-43
2024/01/09 04:20:46;;;;;;;3.10;2.80;;;12.10;59.30;12.80;102288.00;;;;5068667;28;20188;-43
2024/01/09 04:23:12;;;;;;;3.20;2.90;;;12.10;59.30;12.80;102279.00;;;;5067328;28;20224;-43
2024/01/09 04:25:38;;;;;;;3.30;3.00;;;12.00;59.30;12.80;102277.00;;;;5069034;28;20196;-43
2024/01/09 04:28:04;;;;;;;2.97;2.77;;;12.00;59.30;12.80;102280.00;;;;5063507;28;20201;-44
2024/01/09 04:30:29;;;;;;;3.20;2.90;;;12.00;59.30;12.80;102278.00;;;;5078962;28;20315;-43
2024/01/09 04:32:55;;;;;;;2.73;2.53;;;12.00;59.50;12.80;102271.00;;;;5069097;28;20514;-45
2024/01/09 04:35:21;;;;;;;3.03;2.83;;;12.00;59.80;12.70;102274.00;;;;5052402;28;20654;-44
2024/01/09 04:37:47;;;;;;;2.97;2.70;;;12.10;60.00;12.70;102277.00;;;;5083483;28;20207;-44
2024/01/09 04:40:12;;;;;;;5.90;2.90;;;12.10;60.30;12.70;102280.00;;;;5071502;28;20188;-51
2024/01/09 04:42:38;;;;;;;2.77;2.47;;;12.10;60.60;12.70;102276.00;;;;5074145;28;20177;-45
2024/01/09 04:45:04;;;;;;;2.60;2.40;;;12.10;60.60;12.80;102278.00;;;;5073661;28;20262;-43
2024/01/09 04:47:30;;;;;;;2.90;2.70;;;12.10;60.30;12.80;102259.00;;;;5067306;28;20292;-43
2024/01/09 04:49:56;;;;;;;3.20;2.70;;;12.20;60.20;12.90;102275.00;;;;5077161;28;20200;-44
2024/01/09 04:52:22;;;;;;;3.10;2.50;;;12.40;60.10;12.90;102251.00;;;;5084609;28;20181;-44
2024/01/09 04:54:47;;;;;;;3.47;2.93;;;12.40;60.50;13.00;102262.00;;;;5077418;28;20197;-43
2024/01/09 04:57:13;;;;;;;3.47;2.60;;;12.50;59.70;13.10;102267.00;;;;5072518;28;20752;-43
2024/01/09 04:59:41;;;;;;;2.80;2.60;;;12.60;59.60;13.10;102258.00;;;;5072319;28;20220;-43
2024/01/09 05:02:07;;;;;;;2.70;2.50;;;12.80;59.40;13.20;102263.00;;;;5068750;28;20190;-43
2024/01/09 05:04:32;;;;;;;2.73;2.53;;;13.00;59.40;13.30;102253.00;;;;5071056;28;20251;-43
2024/01/09 05:06:58;;;;;;;9.87;3.10;;;13.10;59.80;13.40;102271.00;;;;5068307;28;20781;-44
2024/01/09 05:09:24;;;;;;;3.07;2.77;;;13.20;58.90;13.50;102270.00;;;;5070149;28;20178;-44
2024/01/09 05:11:50;;;;;;;2.60;2.40;;;13.30;58.70;13.70;102258.00;;;;5054079;28;20165;-43
2024/01/09 05:14:16;;;;;;;2.47;2.27;;;13.50;58.50;13.70;102247.00;;;;5066703;28;20206;-42
2024/01/09 05:16:42;;;;;;;2.53;2.33;;;13.60;58.50;13.90;102260.00;;;;5070669;28;20545;-43
2024/01/09 05:19:08;;;;;;;2.93;2.53;;;13.70;58.30;14.00;102249.00;;;;5073960;28;20190;-43
2024/01/09 05:21:33;;;;;;;3.90;2.80;;;13.80;58.40;14.00;102257.00;;;;5071389;28;20178;-43
2024/01/09 05:23:59;;;;;;;4.93;2.63;;;13.90;58.30;14.10;102249.00;;;;5066171;28;20217;-47
2024/01/09 05:26:25;;;;;;;3.20;2.60;;;14.00;58.20;14.20;102243.00;;;;5073864;28;20232;-45
2024/01/09 05:28:51;;;;;;;3.33;2.60;;;14.10;58.20;14.30;102253.00;;;;5077294;28;20166;-48
2024/01/09 05:31:16;;;;;;;4.10;2.77;;;14.20;58.30;14.40;102252.00;;;;5069370;28;20190;-44
2024/01/09 05:33:42;;;;;;;3.47;2.53;;;14.30;58.20;14.50;102235.00;;;;5069733;28;20198;-44
2024/01/09 05:36:08;;;;;;;7.80;3.13;;;14.40;58.20;14.60;102252.00;;;;5068017;28;20244;-45
2024/01/09 05:38:33;;;;;;;6.67;3.13;;;14.40;58.10;14.60;102249.00;;;;5071655;28;20785;-44
2024/01/09 05:40:59;;;;;;;6.10;3.10;;;14.50;58.20;14.70;102244.00;;;;5070557;28;20545;-44
2024/01/09 05:43:25;;;;;;;8.20;3.17;;;14.50;58.10;14.80;102251.00;;;;5071320;28;20209;-44
2024/01/09 05:45:51;;;;;;;7.63;3.30;;;14.60;58.10;14.90;102256.00;;;;5064304;28;20204;-44
2024/01/09 05:48:16;;;;;;;6.70;3.00;;;14.70;58.10;14.90;102254.00;;;;5071385;28;20315;-43
2024/01/09 05:50:42;;;;;;;4.70;3.30;;;14.70;58.00;15.00;102244.00;;;;5043608;28;20176;-45
2024/01/09 05:53:08;;;;;;;8.27;3.27;;;14.70;58.20;15.00;102248.00;;;;5065765;28;20252;-44
2024/01/09 05:55:34;;;;;;;5.60;3.13;;;14.70;58.00;15.00;102244.00;;;;5082586;28;20254;-44
2024/01/09 05:58:01;;;;;;;4.97;3.70;;;14.70;57.30;15.10;102253.00;;;;5071249;28;20779;-43
2024/01/09 06:00:26;;;;;;;8.27;3.37;;;14.60;57.00;15.10;102251.00;;;;5069972;28;20185;-44
2024/01/09 06:02:52;;;;;;;4.57;3.53;;;14.60;56.70;15.00;102245.00;;;;5071065;28;20670;-44
2024/01/09 06:05:18;;;;;;;6.60;3.53;;;14.50;56.50;15.10;102250.00;;;;5050790;28;20189;-45
2024/01/09 06:07:43;;;;;;;7.30;3.40;;;14.50;56.50;15.10;102255.00;;;;5076189;28;20206;-44
2024/01/09 06:10:09;;;;;;;6.40;3.70;;;14.50;56.50;15.10;102245.00;;;;5071254;28;20603;-44
2024/01/09 06:12:35;;;;;;;7.53;3.43;;;14.70;56.60;15.10;102241.00;;;;5071236;28;20202;-44
2024/01/09 06:15:01;;;;;;;5.67;3.57;;;14.70;57.30;15.20;102252.00;;;;5065733;28;20197;-43
2024/01/09 06:17:27;;;;;;;7.43;3.77;;;14.80;56.70;15.20;102253.00;;;;5072287;28;20181;-44
2024/01/09 06:19:53;;;;;;;4.70;3.30;;;14.70;56.70;15.20;102241.00;;;;5070841;28;20196;-44
2024/01/09 06:22:18;;;;;;;4.70;3.10;;;14.80;56.80;15.30;102174.00;;;;5070123;28;20786;-44
2024/01/09 06:24:44;;;;;;;4.27;3.10;;;14.80;56.90;15.30;102244.00;;;;5061844;28;20216;-44
2024/01/09 06:27:10;;;;;;;3.70;3.40;;;14.90;57.10;15.30;102244.00;;;;5071170;28;20205;-44
2024/01/09 06:29:36;;;;;;;5.00;3.10;;;14.90;56.90;15.40;102264.00;;;;5049488;28;20170;-44
2024/01/09 06:32:02;;;;;;;4.40;3.23;;;15.00;57.00;15.40;102258.00;;;;5081574;28;20173;-44
2024/01/09 06:34:28;;;;;;;6.00;3.30;;;15.10;56.90;15.50;102265.00;;;;5074751;28;20193;-45
2024/01/09 06:36:53;;;;;;;3.30;3.00;;;15.10;57.00;15.50;102278.00;;;;5065399;28;20252;-44
2024/01/09 06:39:19;;;;;;;4.47;3.00;;;15.20;57.00;15.60;102275.00;;;;5071232;28;20682;-46
2024/01/09 06:41:45;;;;;;;4.63;3.23;;;15.20;57.00;15.60;102270.00;;;;5070696;28;20206;-45
2024/01/09 06:44:10;;;;;;;3.83;2.97;;;15.30;57.10;15.60;102277.00;;;;5077041;28;20202;-45
2024/01/09 06:46:36;;;;;;;3.17;2.87;;;15.30;57.10;15.70;102265.00;;;;5073824;28;20201;-45
2024/01/09 06:49:02;;;;;;;5.60;2.93;;;15.20;57.60;15.70;102269.00;;;;5070461;28;20177;-45
2024/01/09 06:51:29;;;;;;;3.43;3.10;;;15.30;57.30;15.70;102270.00;;;;5069515;28;20185;-45
2024/01/09 06:53:55;;;;;;;3.27;2.93;;;15.20;57.30;15.70;102260.00;;;;5068476;28;20187;-45
2024/01/09 06:56:21;;;;;;;3.30;3.00;;;15.20;57.30;15.70;102273.00;;;;5068356;28;20189;-44
2024/01/09 06:58:46;;;;;;;3.63;2.83;;;15.30;57.50;15.70;102267.00;;;;5070375;28;20218;-44
2024/01/09 07:01:12;;;;;;;2.97;2.63;;;15.30;57.60;15.80;102247.00;;;;5050352;28;20182;-45
2024/01/09 07:03:38;;;;;;;3.30;3.00;;;15.30;57.40;15.80;102275.00;;;;5043844;28;20610;-44
2024/01/09 07:06:04;;;;;;;3.23;2.83;;;15.30;57.50;15.80;102274.00;;;;5063137;28;20193;-44
2024/01/09 07:08:30;;;;;;;4.07;2.70;;;15.30;57.60;15.80;102274.00;;;;5069912;28;20234;-45
2024/01/09 07:10:56;;;;;;;3.23;2.90;;;15.30;57.60;15.80;102277.00;;;;5041286;28;20173;-44
2024/01/09 07:13:22;;;;;;;3.30;3.00;;;15.40;57.60;15.90;102270.00;;;;5069695;28;20197;-44
2024/01/09 07:15:49;;;;;;;3.73;2.83;;;15.40;57.60;15.90;102289.00;;;;5069874;28;20185;-44
2024/01/09 07:18:15;;;;;;;3.20;2.90;;;15.40;57.60;15.90;102279.00;;;;5064845;28;20196;-44
2024/01/09 07:20:42;;;;;;;3.17;2.80;;;15.30;57.70;15.90;102283.00;;;;5069421;28;20205;-44
2024/01/09 07:23:07;;;;;;;3.03;2.73;;;15.30;57.70;15.90;102281.00;;;;5069772;28;20292;-44
2024/01/09 07:25:33;;;;;;;2.73;2.53;;;15.40;57.80;15.80;102284.00;;;;5064239;28;20622;-44
2024/01/09 07:27:59;;;;;;;3.17;2.70;;;15.40;57.90;15.90;102288.00;;;;5069788;28;20202;-44
2024/01/09 07:30:25;;;;;;;2.90;2.70;;;15.40;57.80;15.90;102292.00;;;;5068831;28;20191;-44
2024/01/09 07:32:50;;;;;;;2.83;2.63;;;15.40;57.70;15.90;102283.00;;;;5069459;28;20176;-44
2024/01/09 07:35:16;;;;;;;4.17;2.80;;;15.40;57.60;15.90;102282.00;;;;5063619;28;20184;-45
2024/01/09 07:37:42;;;;;;;3.23;2.80;;;15.40;57.70;15.90;102291.00;;;;5069385;28;20185;-45
2024/01/09 07:40:09;;;;;;;3.00;2.70;;;15.40;57.90;15.90;102285.00;;;;5070292;28;20185;-44
2024/01/09 07:42:35;;;;;;;2.80;2.60;;;15.40;57.80;15.90;102295.00;;;;5074788;28;20177;-46
2024/01/09 07:45:01;;;;;;;3.13;2.80;;;15.50;57.70;16.00;102295.00;;;;5065537;28;20197;-45
2024/01/09 07:47:26;;;;;;;3.23;2.80;;;15.50;57.70;16.00;102302.00;;;;5068611;28;20205;-45
2024/01/09 07:49:52;;;;;;;3.17;2.87;;;15.50;57.80;16.00;102301.00;;;;5066507;28;20173;-44
2024/01/09 07:52:19;;;;;;;3.30;2.77;;;15.50;57.60;16.00;102297.00;;;;5068975;28;20182;-44
2024/01/09 07:54:45;;;;;;;2.93;2.70;;;15.50;57.70;16.00;102297.00;;;;5063194;28;20246;-43
2024/01/09 07:57:11;;;;;;;3.20;2.90;;;15.50;57.80;16.00;102298.00;;;;5068025;28;20178;-44
2024/01/09 07:59:37;;;;;;;3.03;2.80;;;15.50;57.80;16.00;102291.00;;;;5065498;28;20208;-44
2024/01/09 08:02:04;;;;;;;3.17;2.87;;;15.50;57.60;16.00;102302.00;;;;5069065;28;20647;-45
2024/01/09 08:04:30;;;;;;;2.93;2.70;;;15.50;57.70;16.00;102302.00;;;;5069418;28;20201;-45
2024/01/09 08:06:56;;;;;;;3.73;2.90;;;15.50;58.00;16.00;102315.00;;;;5068430;28;20202;-44
2024/01/09 08:09:22;;;;;;;3.20;2.83;;;15.50;59.30;16.00;102311.00;;;;5069150;28;20178;-46
2024/01/09 08:11:47;;;;;;;3.60;3.07;;;15.50;58.80;16.00;102299.00;;;;5049230;28;20193;-44
2024/01/09 08:14:13;;;;;;;3.63;2.87;;;15.50;58.70;16.00;102300.00;;;;5065723;28;20201;-44
2024/01/09 08:16:40;;;;;;;3.70;2.90;;;15.50;58.60;16.00;102301.00;;;;5046364;28;20185;-44
2024/01/09 08:19:06;;;;;;;3.33;2.77;;;15.60;58.40;16.00;102302.00;;;;5064688;28;20170;-45
2024/01/09 08:21:34;;;;;;;5.77;2.90;;;15.60;58.40;16.00;102302.00;;;;5073505;28;20185;-45
2024/01/09 08:24:00;;;;;;;3.20;2.90;;;15.60;58.20;16.10;102303.00;;;;5071525;28;20820;-45
2024/01/09 08:26:25;;;;;;;3.40;3.10;;;15.60;58.20;16.10;102293.00;;;;5079738;28;20213;-45
2024/01/09 08:28:51;;;;;;;3.80;3.10;;;15.50;58.20;16.10;102289.00;;;;5043646;28;20170;-44
2024/01/09 08:31:17;;;;;;;3.10;2.80;;;15.50;58.20;16.10;102288.00;;;;5068946;28;20177;-44
2024/01/09 08:33:43;;;;;;;3.00;2.70;;;15.50;58.20;16.10;102286.00;;;;5067905;28;20205;-44
2024/01/09 08:36:08;;;;;;;3.27;2.90;;;15.60;58.40;16.10;102283.00;;;;5065843;28;20657;-44
2024/01/09 08:38:34;;;;;;;3.10;2.80;;;15.60;58.20;16.10;102292.00;;;;5056119;28;20233;-45
2024/01/09 08:41:02;;;;;;;4.10;2.70;;;15.60;58.40;16.10;102293.00;;;;5074468;28;20188;-45
2024/01/09 08:43:28;;;;;;;3.37;2.97;;;15.50;58.70;16.00;102295.00;;;;5068977;28;20205;-45
2024/01/09 08:45:54;;;;;;;2.90;2.60;;;15.50;58.80;16.00;102294.00;;;;5040091;28;20224;-44
2024/01/09 08:48:20;;;;;;;4.67;2.70;;;15.50;58.80;16.10;102308.00;;;;5068825;28;20242;-45
2024/01/09 08:50:45;;;;;;;2.90;2.60;;;15.60;58.80;16.10;102306.00;;;;5068574;28;20576;-44
2024/01/09 08:53:11;;;;;;;3.40;2.43;;;15.60;58.80;16.10;102310.00;;;;5066800;28;20200;-45
2024/01/09 08:55:37;;;;;;;3.30;3.00;;;15.60;58.70;16.10;102291.00;;;;5067061;28;20219;-45
2024/01/09 08:58:03;;;;;;;4.27;2.70;;;15.60;58.70;16.10;102299.00;;;;5045156;28;20731;-45
2024/01/09 09:00:29;;;;;;;3.20;2.90;;;15.60;58.80;16.10;102304.00;;;;5068227;28;20917;-46
2024/01/09 09:02:55;;;;;;;3.30;2.40;;;15.60;58.60;16.10;102305.00;;;;5068665;28;20188;-45
2024/01/09 09:05:20;;;;;;;3.17;2.60;;;15.60;58.90;16.10;102300.00;;;;5068463;28;20785;-45
2024/01/09 09:07:46;;;;;;;9.10;2.80;;;15.50;59.00;16.10;102315.00;;;;5063410;28;20206;-45
2024/01/09 09:10:12;;;;;;;4.90;2.80;;;15.50;59.10;16.10;102312.00;;;;5055001;28;20182;-45
2024/01/09 09:12:38;;;;;;;9.93;2.83;;;15.50;59.00;16.10;102314.00;;;;5066409;28;20166;-45
2024/01/09 09:15:03;;;;;;;3.53;2.57;;;15.60;59.00;16.10;102312.00;;;;5067116;28;20257;-45
2024/01/09 09:17:30;;;;;;;3.77;2.60;;;15.60;58.90;16.10;102311.00;;;;5061201;28;20264;-45
2024/01/09 09:19:57;;;;;;;5.50;2.77;;;15.60;58.90;16.10;102297.00;;;;5040833;28;20182;-47
2024/01/09 09:22:25;;;;;;;3.63;2.60;;;15.60;59.20;16.10;102297.00;;;;5062520;28;20183;-48
2024/01/09 09:24:52;;;;;;;4.53;2.60;;;15.60;59.20;16.10;102301.00;;;;5042003;28;20195;-48
2024/01/09 09:27:18;;;;;;;3.50;2.60;;;15.50;59.20;16.10;102314.00;;;;5073841;28;20505;-47
2024/01/09 09:29:44;;;;;;;2.83;2.63;;;15.60;59.30;16.10;102302.00;;;;5069781;28;20186;-46
2024/01/09 09:32:10;;;;;;;2.80;2.60;;;15.60;59.40;16.10;102300.00;;;;5049225;28;20175;-47
2024/01/09 09:34:41;;;;;;;2.70;2.50;;;15.60;59.40;16.20;102301.00;;;;5074364;28;20197;-49
2024/01/09 09:37:07;;;;;;;2.80;2.60;;;15.60;59.50;16.20;102308.00;;;;5067602;28;20177;-47
2024/01/09 09:39:34;;;;;;;3.20;2.53;;;15.60;59.40;16.20;102291.00;;;;5071980;28;20911;-47
2024/01/09 09:42:00;;;;;;;3.90;2.77;;;15.60;60.00;16.20;102312.00;;;;5079550;28;20219;-47
2024/01/09 09:44:26;;;;;;;3.00;2.70;;;15.70;59.90;16.20;102313.00;;;;5073332;28;20226;-47
2024/01/09 09:46:52;;;;;;;2.80;2.50;;;15.70;59.80;16.20;102296.00;;;;5044125;28;20202;-49
2024/01/09 09:49:24;;;;;;;3.90;2.47;;;15.70;59.70;16.20;102305.00;;;;5071766;28;20521;-47
2024/01/09 09:51:54;;;;;;;2.53;2.30;;;15.70;59.80;16.20;102315.00;;;;5044452;28;20180;-47
2024/01/09 09:54:22;;;;;;;3.73;2.50;;;15.80;59.80;16.20;102313.00;;;;5071099;28;20202;-47
2024/01/09 09:56:47;;;;;;;7.37;2.60;;;15.80;59.60;16.20;102307.00;;;;5070802;28;20715;-48
2024/01/09 09:59:14;;;;;;;3.50;2.60;;;15.80;59.60;16.30;102307.00;;;;5070689;28;20185;-48
2024/01/09 10:01:40;;;;;;;4.00;2.37;;;15.80;59.60;16.30;102308.00;;;;5070888;28;20173;-47
2024/01/09 10:04:29;;;;;;;2.40;2.20;;;15.80;59.60;16.30;102313.00;;;;5066439;28;20194;-46
2024/01/09 10:06:56;;;;;;;4.47;2.30;;;15.70;59.60;16.30;102305.00;;;;5069648;28;20202;-47
2024/01/09 10:09:22;;;;;;;2.40;2.20;;;15.70;59.60;16.30;102297.00;;;;5072467;28;20171;-47
2024/01/09 10:11:49;;;;;;;2.50;2.30;;;15.70;59.90;16.30;102311.00;;;;5044107;28;20223;-47
2024/01/09 10:14:15;;;;;;;3.60;2.60;;;15.70;59.90;16.30;102306.00;;;;5055610;28;20206;-47
2024/01/09 10:16:53;;;;;;;2.50;2.30;;;15.70;59.80;16.30;102297.00;;;;5069860;28;20588;-46
2024/01/09 10:19:19;;;;;;;3.23;2.33;;;15.70;59.60;16.30;102293.00;;;;5071668;28;20290;-47
2024/01/09 10:21:45;;;;;;;2.77;2.50;;;15.80;59.80;16.30;102295.00;;;;5084257;28;20181;-47
2024/01/09 10:24:11;;;;;;;4.23;2.40;;;15.90;59.70;16.40;102290.00;;;;5071751;28;20197;-46
2024/01/09 10:26:36;;;;;;;4.00;2.40;;;16.00;59.70;16.50;102301.00;;;;5046110;28;20224;-48
2024/01/09 10:29:03;;;;;;;5.30;2.43;;;16.00;59.50;16.50;102292.00;;;;5071545;28;20189;-47
2024/01/09 10:31:30;;;;;;;5.03;2.60;;;16.10;59.50;16.60;102291.00;;;;5076438;28;20174;-48
2024/01/09 10:33:56;;;;;;;3.53;2.50;;;16.20;59.50;16.70;102283.00;;;;5080604;28;20195;-47
2024/01/09 10:36:22;;;;;;;4.27;2.57;;;16.30;59.40;16.70;102289.00;;;;5080362;28;20251;-47
2024/01/09 10:38:48;;;;;;;4.00;2.20;;;16.30;59.30;16.80;102295.00;;;;5041877;28;20180;-48
2024/01/09 10:41:18;;;;;;;2.50;2.30;;;16.30;59.30;16.80;102286.00;;;;5068806;28;20199;-47
2024/01/09 10:43:44;;;;;;;2.83;2.20;;;16.30;59.30;16.80;102284.00;;;;5069130;28;20203;-47